Hovedside
METAR-TAF:

METAR-TAF

Lufthavner :

Åbo, Finland

Åbo lufthavn

breddegrad: 60-31N, lengdegrad: 022-16E, høyde over havet: 49 m

Gjeldene værobservasjon

Denne rapporten ble laget for 16 minutter siden, klokken 22:20 UTC
Vind 4 kt fra Nordøst
Temperatur 15°C
Luftfuktighet 82%
Trykk 1012 hPa
Sikt 10 km eller mer

METAR: EFTU 242220Z AUTO 04004KT 9999 FEW052/// OVC060/// 15/12 Q1012

Tid: 01:36 (22:36 UTC)

Varsel

Denne rapporten ble laget for 2 timer og 10 minutter siden, klokken 20:26 UTC
Varsel gyldig fra 24. klokken 21 UTC til 25. klokken 21 UTC
Vind 5 kt fra Nord-nordøst
Sikt 10 km eller mer
Brutte skyer i en høyde av 3000 ft

TAF: EFTU 242026Z 2421/2521 02005KT 9999 BKN030

Værobservasjoner og værvarsel for over 4000 flyplasser (METAR- og TAF-rapporter).

Tilgjengelige stasjoner er representert av de røde og gule prikkene på kartet.

Hold musepekeren over prikken for å se navnet på stasjonen.

Klikk så for å se værobservasjoner og -varsler.

For å forandre kartet kan du klikke på den grønne knappen med svart kryss for å zoome inn, på den grønne knappen med strek for å zoome ut, eller på de grønne pilene for å se tilstøtende kart.


METAR-TAF: